Time;durP1;ratioP1;P1;durP2;ratioP2;P2;SDS_P1;SDS_P2;PMS_P1;PMS_P2;Temp;Humidity;BMP_temperature;BMP_pressure;BME280_temperature;BME280_humidity;BME280_pressure;Samples;Min_cycle;Max_cycle;Signal;HPM_P1;HPM_P2
2022/02/21 00:01:09;;;;;;;8.08;3.50;;;;;;;8.27;65.37;101129.04;1935946;74;21433;-62
2022/02/21 00:03:38;;;;;;;6.90;3.50;;;;;;;8.27;65.34;101129.04;1935872;74;21050;-63
2022/02/21 00:06:07;;;;;;;9.30;3.55;;;;;;;8.24;65.48;101129.09;1935982;74;21476;-63
2022/02/21 00:08:36;;;;;;;6.87;2.95;;;;;;;8.26;65.35;101128.19;1935942;74;21484;-62
2022/02/21 00:11:04;;;;;;;5.20;2.85;;;;;;;8.29;65.21;101128.55;1935777;74;21449;-62
2022/02/21 00:13:33;;;;;;;6.50;2.25;;;;;;;8.30;65.23;101134.22;1935866;74;21508;-62
2022/02/21 00:16:02;;;;;;;6.47;2.92;;;;;;;8.32;65.11;101132.42;1935633;74;21582;-62
2022/02/21 00:18:31;;;;;;;7.08;3.55;;;;;;;8.35;65.09;101137.58;1935741;74;21058;-62
2022/02/21 00:21:00;;;;;;;7.00;2.95;;;;;;;8.37;64.99;101133.16;1935775;74;21468;-62
2022/02/21 00:23:28;;;;;;;10.63;3.55;;;;;;;8.39;64.90;101139.25;1935947;74;21010;-62
2022/02/21 00:25:57;;;;;;;7.37;2.92;;;;;;;8.39;64.85;101135.32;1935729;74;21038;-62
2022/02/21 00:28:26;;;;;;;9.88;3.92;;;;;;;8.38;64.75;101133.58;1935638;74;21038;-62
2022/02/21 00:30:54;;;;;;;8.05;4.08;;;;;;;8.36;64.78;101134.07;1935739;74;21013;-62
2022/02/21 00:33:23;;;;;;;9.80;3.83;;;;;;;8.38;64.73;101131.41;1935713;74;21170;-61
2022/02/21 00:35:52;;;;;;;9.60;4.33;;;;;;;8.37;64.72;101116.55;1935948;74;21566;-62
2022/02/21 00:38:21;;;;;;;5.87;3.12;;;;;;;8.38;64.69;101128.79;1935792;74;21034;-62
2022/02/21 00:40:50;;;;;;;9.75;3.90;;;;;;;8.40;64.63;101124.37;1935636;74;21006;-63
2022/02/21 00:43:19;;;;;;;9.03;3.30;;;;;;;8.40;64.59;101117.80;1935993;74;21157;-62
2022/02/21 00:45:48;;;;;;;6.00;2.90;;;;;;;8.40;64.56;101112.09;1935893;74;21123;-62
2022/02/21 00:48:18;;;;;;;5.45;3.00;;;;;;;8.41;64.54;101113.84;1935980;74;21100;-62
2022/02/21 00:50:47;;;;;;;8.08;3.22;;;;;;;8.40;64.54;101109.47;1935968;74;21006;-62
2022/02/21 00:53:16;;;;;;;7.75;3.22;;;;;;;8.40;64.44;101116.03;1935700;74;21143;-63
2022/02/21 00:55:45;;;;;;;8.80;3.70;;;;;;;8.41;64.41;101116.46;1935813;74;21202;-62
2022/02/21 00:58:14;;;;;;;6.47;3.42;;;;;;;8.38;64.36;101115.67;1935906;74;21604;-62
2022/02/21 01:00:43;;;;;;;8.98;3.67;;;;;;;8.35;64.41;101107.86;1935853;74;21547;-62
2022/02/21 01:03:12;;;;;;;9.95;4.05;;;;;;;8.31;64.48;101097.89;1935860;74;21468;-62
2022/02/21 01:05:40;;;;;;;8.60;3.95;;;;;;;8.29;64.53;101098.37;1935879;74;21500;-62
2022/02/21 01:08:10;;;;;;;11.18;4.90;;;;;;;8.28;64.61;101097.95;1935768;74;21496;-62
2022/02/21 01:10:39;;;;;;;7.92;3.83;;;;;;;8.29;64.61;101095.75;1935827;74;21508;-62
2022/02/21 01:13:08;;;;;;;8.85;3.70;;;;;;;8.29;64.67;101090.50;1935873;74;21637;-62
2022/02/21 01:15:57;;;;;;;7.10;4.30;;;;;;;8.30;64.66;101089.62;1935856;74;21037;-62
2022/02/21 01:18:26;;;;;;;9.03;3.60;;;;;;;8.30;64.81;101092.25;1918489;75;21116;-63
2022/02/21 01:20:55;;;;;;;7.25;3.60;;;;;;;8.28;64.94;101088.34;1918511;75;21578;-62
2022/02/21 01:23:24;;;;;;;13.88;4.95;;;;;;;8.28;65.02;101092.70;1918620;75;21109;-62
2022/02/21 01:25:52;;;;;;;8.68;3.70;;;;;;;8.28;65.04;101092.70;1918799;75;21523;-62
2022/02/21 01:28:21;;;;;;;7.78;3.77;;;;;;;8.28;65.16;101096.21;1918673;75;21408;-62
2022/02/21 01:30:50;;;;;;;6.45;2.67;;;;;;;8.28;65.06;101092.27;1918537;75;21082;-63
2022/02/21 01:33:20;;;;;;;10.63;3.83;;;;;;;8.27;65.06;101093.62;1918552;75;21568;-62
2022/02/21 01:35:48;;;;;;;10.03;4.25;;;;;;;8.26;64.97;101090.57;1918725;75;21042;-62
2022/02/21 01:38:17;;;;;;;7.00;3.45;;;;;;;8.25;64.99;101091.48;1918629;75;21038;-62
2022/02/21 01:40:46;;;;;;;10.00;4.80;;;;;;;8.26;64.99;101093.19;1918648;75;21038;-62
2022/02/21 01:43:15;;;;;;;7.25;3.60;;;;;;;8.25;64.95;101088.41;1918620;75;21026;-62
2022/02/21 01:45:44;;;;;;;11.53;3.72;;;;;;;8.26;64.93;101087.95;1918711;75;21109;-62
2022/02/21 01:48:13;;;;;;;10.00;3.92;;;;;;;8.26;64.83;101091.45;1918541;75;21039;-62
2022/02/21 01:50:43;;;;;;;11.20;4.12;;;;;;;8.26;64.79;101091.88;1918785;75;21046;-62
2022/02/21 01:53:12;;;;;;;10.82;4.45;;;;;;;8.25;64.79;101080.99;1918677;75;21034;-61
2022/02/21 01:55:43;;;;;;;6.37;3.08;;;;;;;8.27;64.69;101089.69;1918571;75;21046;-61
2022/02/21 01:58:12;;;;;;;7.05;3.35;;;;;;;8.29;64.61;101087.88;1918474;75;21058;-61
2022/02/21 02:00:41;;;;;;;6.72;3.27;;;;;;;8.32;64.54;101097.00;1918567;74;21120;-61
2022/02/21 02:03:10;;;;;;;8.83;4.10;;;;;;;8.37;64.46;101102.98;1918574;75;21054;-61
2022/02/21 02:05:39;;;;;;;9.78;3.98;;;;;;;8.40;64.40;101106.00;1918661;75;21453;-61
2022/02/21 02:08:08;;;;;;;9.28;4.08;;;;;;;8.41;64.51;101108.59;1918592;75;21507;-62
2022/02/21 02:10:38;;;;;;;12.78;5.33;;;;;;;8.42;64.72;101113.41;1918476;75;21504;-62
2022/02/21 02:13:06;;;;;;;11.53;4.65;;;;;;;8.44;64.84;101107.67;1918721;75;21108;-62
2022/02/21 02:15:35;;;;;;;11.10;5.42;;;;;;;8.45;64.79;101112.89;1918559;75;21108;-62
2022/02/21 02:18:04;;;;;;;10.08;3.92;;;;;;;8.46;64.79;101114.59;1914600;75;21477;-62
2022/02/21 02:20:32;;;;;;;12.85;4.60;;;;;;;8.46;64.80;101102.78;1834163;78;21035;-62
2022/02/21 02:23:05;;;;;;;8.40;3.02;;;;;;;8.46;65.03;101109.34;1866654;76;21043;-63
2022/02/21 02:25:31;;;;;;;9.90;4.83;;;;;;;8.44;65.06;101111.16;1875737;76;21051;-63
2022/02/21 02:28:00;;;;;;;12.18;5.53;;;;;;;8.44;65.26;101103.28;1866717;77;21129;-63
2022/02/21 02:30:29;;;;;;;10.88;4.15;;;;;;;8.42;65.24;101107.70;1866814;77;21160;-63
2022/02/21 02:32:57;;;;;;;9.43;4.33;;;;;;;8.41;65.37;101111.64;1866722;77;21035;-63
2022/02/21 02:35:28;;;;;;;14.28;5.40;;;;;;;8.39;65.53;101113.02;1866679;77;21583;-63
2022/02/21 02:37:56;;;;;;;12.18;5.62;;;;;;;8.39;65.78;101107.77;1866817;77;21044;-62
2022/02/21 02:40:25;;;;;;;9.95;5.20;;;;;;;8.37;66.14;101106.06;1866712;77;21086;-62
2022/02/21 02:42:54;;;;;;;11.55;4.87;;;;;;;8.33;66.33;101105.27;1866722;77;21133;-63
2022/02/21 02:45:23;;;;;;;12.15;5.33;;;;;;;8.29;66.74;101106.25;1866857;77;21478;-63
2022/02/21 02:47:52;;;;;;;10.55;4.97;;;;;;;8.26;67.01;101101.06;1866808;77;21047;-63
2022/02/21 02:50:20;;;;;;;11.70;4.95;;;;;;;8.25;66.98;101101.98;1866759;77;21456;-62
2022/02/21 02:52:51;;;;;;;11.65;5.17;;;;;;;8.24;67.31;101100.24;1927410;73;21208;-62
2022/02/21 02:55:20;;;;;;;11.03;4.85;;;;;;;8.22;67.19;101095.48;1937315;74;21012;-62
2022/02/21 02:57:48;;;;;;;13.43;5.20;;;;;;;8.20;67.34;101091.58;1937358;74;21044;-62
2022/02/21 03:00:17;;;;;;;12.43;5.40;;;;;;;8.19;67.46;101089.88;1937209;74;21036;-62
2022/02/21 03:02:46;;;;;;;11.78;5.53;;;;;;;8.18;67.51;101093.84;1937355;74;21040;-62
2022/02/21 03:05:15;;;;;;;11.35;4.47;;;;;;;8.15;67.71;101096.52;1937131;74;21107;-62
2022/02/21 03:07:43;;;;;;;10.80;4.75;;;;;;;8.16;67.61;101089.08;1937450;74;21083;-62
2022/02/21 03:10:12;;;;;;;10.82;4.97;;;;;;;8.14;67.60;101093.05;1937243;74;21125;-61
2022/02/21 03:13:01;;;;;;;12.35;5.83;;;;;;;8.15;67.72;101093.89;1937150;74;21043;-62
2022/02/21 03:15:30;;;;;;;13.30;5.65;;;;;;;8.14;67.82;101089.11;1977393;72;21034;-62
2022/02/21 03:17:59;;;;;;;13.62;5.50;;;;;;;8.11;67.90;101083.50;1977231;72;21092;-62
2022/02/21 03:20:28;;;;;;;15.40;5.22;;;;;;;8.10;67.90;101076.52;1977254;72;21049;-62
2022/02/21 03:22:56;;;;;;;14.33;6.72;;;;;;;8.10;68.01;101075.20;1977404;72;21018;-62
2022/02/21 03:25:25;;;;;;;12.30;5.62;;;;;;;8.08;68.23;101080.94;1977197;71;21046;-63
2022/02/21 03:27:54;;;;;;;11.25;5.25;;;;;;;8.07;68.41;101083.13;1977258;72;21077;-62
2022/02/21 03:30:23;;;;;;;13.83;6.17;;;;;;;8.05;68.50;101083.63;1977272;72;21065;-62
2022/02/21 03:32:53;;;;;;;12.73;4.62;;;;;;;8.06;68.51;101080.11;1977261;72;21488;-62
2022/02/21 03:35:22;;;;;;;15.88;5.12;;;;;;;8.05;68.63;101081.45;1977415;72;21091;-62
2022/02/21 03:37:50;;;;;;;12.78;5.67;;;;;;;8.04;68.62;101074.47;1977297;72;21018;-63
2022/02/21 03:40:19;;;;;;;16.97;6.37;;;;;;;8.03;68.68;101077.55;1977173;72;21152;-62
2022/02/21 03:42:48;;;;;;;17.77;8.40;;;;;;;8.04;68.64;101075.36;1977275;72;21641;-62
2022/02/21 03:45:19;;;;;;;22.73;8.65;;;;;;;8.05;68.62;101079.69;1977198;72;21045;-63
2022/02/21 03:47:47;;;;;;;20.17;10.28;;;;;;;8.04;68.77;101079.29;1977231;72;21049;-63
2022/02/21 03:50:16;;;;;;;23.85;10.40;;;;;;;7.99;69.00;101074.59;1977158;72;21558;-62
2022/02/21 03:52:45;;;;;;;22.40;9.43;;;;;;;8.01;69.21;101083.74;1977238;72;21041;-63
2022/02/21 03:55:14;;;;;;;17.82;9.38;;;;;;;7.99;69.33;101077.22;1977317;72;21077;-62
2022/02/21 03:57:43;;;;;;;20.37;10.55;;;;;;;7.98;69.49;101082.03;1977231;72;21168;-62
2022/02/21 04:00:14;;;;;;;19.40;8.55;;;;;;;7.99;69.61;101085.54;1977172;72;21058;-62
2022/02/21 04:02:44;;;;;;;18.40;7.90;;;;;;;7.98;69.76;101095.60;1977228;72;21138;-62
2022/02/21 04:05:14;;;;;;;16.35;7.47;;;;;;;7.96;69.92;101098.25;1977131;72;21101;-62
2022/02/21 04:07:44;;;;;;;22.25;7.67;;;;;;;7.90;70.08;101094.01;1977393;72;21126;-61
2022/02/21 04:10:14;;;;;;;17.55;7.37;;;;;;;7.89;70.28;101109.77;1977224;72;21523;-61
2022/02/21 04:12:43;;;;;;;16.32;6.83;;;;;;;7.84;70.47;101104.64;1977480;72;21089;-61
2022/02/21 04:15:12;;;;;;;17.60;7.60;;;;;;;7.84;70.58;101102.02;1977587;72;21558;-64
2022/02/21 04:17:46;;;;;;;18.98;6.95;;;;;;;7.85;70.70;101098.48;1977890;72;21048;-65
2022/02/21 04:20:16;;;;;;;19.02;7.95;;;;;;;7.88;70.77;101113.31;1978178;72;21091;-65
2022/02/21 04:22:45;;;;;;;15.78;7.85;;;;;;;7.90;70.77;101115.45;1978008;72;21436;-65
2022/02/21 04:25:15;;;;;;;16.77;8.38;;;;;;;7.90;70.88;101116.30;1977998;72;21521;-65
2022/02/21 04:27:49;;;;;;;21.25;9.38;;;;;;;7.91;70.99;101126.33;1977987;72;21416;-64
2022/02/21 04:30:21;;;;;;;18.05;8.00;;;;;;;7.94;71.04;101128.89;1977789;72;21020;-64
2022/02/21 04:32:50;;;;;;;18.35;7.78;;;;;;;7.96;71.12;101132.34;1978129;72;21025;-64
2022/02/21 04:35:20;;;;;;;17.20;8.08;;;;;;;7.97;71.27;101126.64;1978344;72;21400;-64
2022/02/21 04:37:49;;;;;;;20.62;8.90;;;;;;;7.98;71.38;101126.61;1978081;72;21052;-64
2022/02/21 04:40:20;;;;;;;21.02;7.83;;;;;;;8.01;71.49;101134.87;1978002;72;21017;-64
2022/02/21 04:42:50;;;;;;;18.30;7.97;;;;;;;8.03;71.51;101130.45;1977895;72;21090;-64
2022/02/21 04:45:20;;;;;;;15.65;7.33;;;;;;;8.03;71.49;101131.77;1978171;72;21495;-64
2022/02/21 04:47:49;;;;;;;16.77;9.03;;;;;;;8.03;71.55;101128.69;1978174;72;21408;-64
2022/02/21 04:50:19;;;;;;;20.43;8.43;;;;;;;8.04;71.65;101125.19;1978022;72;21032;-64
2022/02/21 04:52:48;;;;;;;20.57;7.70;;;;;;;8.05;71.68;101131.28;1978269;72;21095;-64
2022/02/21 04:55:16;;;;;;;19.50;7.78;;;;;;;8.05;71.71;101132.14;1977856;72;21102;-64
2022/02/21 04:57:46;;;;;;;19.67;7.97;;;;;;;8.07;71.71;101139.52;1977976;72;21032;-65
2022/02/21 05:00:16;;;;;;;15.53;7.83;;;;;;;8.07;71.77;101143.45;1977986;72;21017;-65
2022/02/21 05:02:45;;;;;;;16.62;8.20;;;;;;;8.07;71.88;101139.52;1978112;72;21005;-64
2022/02/21 05:05:14;;;;;;;16.70;7.87;;;;;;;8.07;71.95;101146.08;1977949;72;21090;-64
2022/02/21 05:07:43;;;;;;;20.65;8.65;;;;;;;8.08;71.94;101141.72;1977925;72;21337;-65
2022/02/21 05:10:12;;;;;;;17.57;7.78;;;;;;;8.09;71.86;101143.42;1977925;72;21029;-64
2022/02/21 05:12:41;;;;;;;18.05;8.63;;;;;;;8.09;71.78;101152.15;1978013;72;21517;-64
2022/02/21 05:15:11;;;;;;;18.12;7.85;;;;;;;8.09;71.76;101157.39;1976444;72;21841;-64
2022/02/21 05:17:41;;;;;;;20.17;7.92;;;;;;;8.06;71.77;101165.35;1973560;73;21054;-64
2022/02/21 05:20:12;;;;;;;23.00;10.00;;;;;;;8.00;71.89;101168.08;1973592;71;21099;-64
2022/02/21 05:22:41;;;;;;;24.55;9.43;;;;;;;7.92;72.14;101164.78;1973556;73;21061;-64
2022/02/21 05:25:10;;;;;;;26.33;11.73;;;;;;;7.79;72.42;101167.25;1973623;73;21042;-64
2022/02/21 05:27:40;;;;;;;24.60;10.68;;;;;;;7.69;72.77;101167.44;1973666;73;21465;-64
2022/02/21 05:30:10;;;;;;;27.80;10.95;;;;;;;7.61;72.98;101165.40;1973740;73;21018;-63
2022/02/21 05:32:38;;;;;;;28.38;11.10;;;;;;;7.52;73.13;101164.27;1973564;73;21010;-65
2022/02/21 05:35:08;;;;;;;23.05;10.58;;;;;;;7.45;73.40;101161.34;1973589;72;21183;-65
2022/02/21 05:37:37;;;;;;;29.50;11.57;;;;;;;7.40;73.51;101163.22;1973656;71;21023;-65
2022/02/21 05:40:07;;;;;;;25.50;11.20;;;;;;;7.33;73.65;101165.08;1973593;73;21022;-65
2022/02/21 05:42:35;;;;;;;23.55;10.80;;;;;;;7.34;73.76;101166.36;1973553;73;21022;-64
2022/02/21 05:45:05;;;;;;;24.47;9.45;;;;;;;7.38;73.79;101168.91;1973577;73;21100;-64
2022/02/21 05:47:34;;;;;;;25.20;11.08;;;;;;;7.37;73.81;101169.36;1973454;73;21085;-65
2022/02/21 05:50:03;;;;;;;22.37;10.20;;;;;;;7.39;73.76;101165.41;1973600;71;21035;-64
2022/02/21 05:52:31;;;;;;;24.27;10.85;;;;;;;7.40;73.87;101168.00;1973744;73;21473;-64
2022/02/21 05:55:00;;;;;;;18.10;8.88;;;;;;;7.43;73.87;101169.27;1973647;73;21108;-64
2022/02/21 05:57:30;;;;;;;21.95;9.60;;;;;;;7.50;73.67;101173.47;1973636;73;21116;-64
2022/02/21 06:00:01;;;;;;;20.25;9.28;;;;;;;7.52;73.63;101174.75;1973615;73;21006;-64
2022/02/21 06:02:32;;;;;;;23.15;9.43;;;;;;;7.53;73.66;101180.42;1973408;73;21026;-64
2022/02/21 06:05:00;;;;;;;19.77;8.60;;;;;;;7.49;73.75;101189.25;1973696;73;21026;-64
2022/02/21 06:07:29;;;;;;;23.75;9.75;;;;;;;7.46;73.85;101193.22;1973715;71;21088;-64
2022/02/21 06:09:59;;;;;;;19.65;8.78;;;;;;;7.44;73.86;101191.08;1973680;73;21062;-64
2022/02/21 06:12:27;;;;;;;17.95;8.23;;;;;;;7.43;73.80;101194.16;1973509;71;21050;-64
2022/02/21 06:14:56;;;;;;;16.77;8.58;;;;;;;7.41;73.67;101197.22;1973804;73;21034;-64
2022/02/21 06:17:25;;;;;;;22.02;8.55;;;;;;;7.41;73.52;101206.39;1973539;72;21182;-64
2022/02/21 06:19:54;;;;;;;22.87;9.28;;;;;;;7.43;73.37;101208.56;1947609;74;21548;-64
2022/02/21 06:22:23;;;;;;;21.37;8.63;;;;;;;7.40;73.42;101205.14;1947568;74;21039;-64
2022/02/21 06:24:51;;;;;;;18.75;9.28;;;;;;;7.38;73.62;101208.20;1947568;72;21128;-65
2022/02/21 06:27:20;;;;;;;24.52;9.98;;;;;;;7.28;74.04;101204.44;1947577;74;21124;-64
2022/02/21 06:29:50;;;;;;;22.50;9.60;;;;;;;7.18;74.25;101208.12;1947655;74;21535;-64
2022/02/21 06:32:18;;;;;;;22.07;9.53;;;;;;;7.20;74.33;101210.27;1947602;73;21481;-64
2022/02/21 06:34:51;;;;;;;22.52;9.48;;;;;;;7.17;74.49;101215.55;1947631;74;21059;-65
2022/02/21 06:37:20;;;;;;;23.25;10.38;;;;;;;7.18;74.43;101212.52;1947618;74;21031;-64
2022/02/21 06:39:48;;;;;;;22.13;10.03;;;;;;;7.18;74.36;101216.44;1947586;74;21474;-64
2022/02/21 06:42:17;;;;;;;20.65;9.90;;;;;;;7.20;74.26;101219.90;1947563;74;21163;-64
2022/02/21 06:44:46;;;;;;;17.62;8.75;;;;;;;7.19;74.20;101224.25;1947546;74;21125;-65
2022/02/21 06:47:15;;;;;;;18.27;8.08;;;;;;;7.21;74.15;101221.19;1947591;74;21176;-65
2022/02/21 06:49:44;;;;;;;17.95;8.75;;;;;;;7.23;73.89;101216.78;1947570;73;21470;-64
2022/02/21 06:52:12;;;;;;;17.15;9.28;;;;;;;7.23;73.79;101222.44;1947482;72;21047;-65
2022/02/21 06:54:41;;;;;;;16.00;8.45;;;;;;;7.18;73.97;101225.61;1947516;72;21071;-65
2022/02/21 06:57:10;;;;;;;15.50;7.45;;;;;;;7.16;74.06;101228.25;1947637;74;21108;-64
2022/02/21 06:59:39;;;;;;;15.53;7.12;;;;;;;7.12;74.17;101229.20;1947578;74;21055;-65
2022/02/21 07:02:08;;;;;;;12.37;6.22;;;;;;;7.07;74.34;101227.09;1947588;74;21035;-64
2022/02/21 07:04:37;;;;;;;12.55;5.75;;;;;;;7.01;74.57;101235.92;1947439;73;21027;-64
2022/02/21 07:07:06;;;;;;;12.13;6.47;;;;;;;6.95;74.67;101234.69;1947637;72;21359;-63
2022/02/21 07:09:34;;;;;;;13.55;7.05;;;;;;;6.92;74.86;101241.30;1947549;73;21043;-63
2022/02/21 07:12:03;;;;;;;13.55;6.10;;;;;;;6.94;74.66;101239.06;1947596;74;21502;-64
2022/02/21 07:14:33;;;;;;;10.72;6.42;;;;;;;6.92;74.76;101244.77;1947595;74;21019;-63
2022/02/21 07:17:01;;;;;;;17.55;7.80;;;;;;;6.92;74.86;101238.69;1939559;73;21047;-63
2022/02/21 07:19:30;;;;;;;15.23;8.03;;;;;;;6.96;74.90;101238.59;1942059;74;21198;-63
2022/02/21 07:21:59;;;;;;;14.87;8.18;;;;;;;7.00;74.79;101237.25;1942112;74;21104;-63
2022/02/21 07:24:28;;;;;;;14.07;6.83;;;;;;;6.89;75.02;101239.58;1973850;73;21054;-63
2022/02/21 07:26:57;;;;;;;12.93;7.33;;;;;;;6.82;75.31;101238.39;1973977;73;21123;-64
2022/02/21 07:29:26;;;;;;;12.95;6.72;;;;;;;6.89;75.08;101226.94;1973881;73;21127;-64
2022/02/21 07:31:55;;;;;;;11.05;6.08;;;;;;;6.96;74.99;101224.20;1931563;74;21187;-63
2022/02/21 07:34:23;;;;;;;12.35;6.20;;;;;;;6.95;75.02;101227.72;1942001;73;21089;-63
2022/02/21 07:36:52;;;;;;;12.00;5.92;;;;;;;7.00;75.15;101226.77;1942101;74;21030;-64
2022/02/21 07:39:21;;;;;;;8.90;5.45;;;;;;;7.01;75.17;101225.87;1973991;71;21007;-63
2022/02/21 07:41:50;;;;;;;11.28;5.12;;;;;;;7.04;75.09;101223.20;1973969;73;21178;-63
2022/02/21 08:04:55;;;;;;;11.97;5.90;;;;;;;7.84;76.07;101225.25;1960297;72;28021;-63
2022/02/21 08:07:24;;;;;;;13.68;7.00;;;;;;;7.88;75.31;101224.28;1919576;75;21043;-63
2022/02/21 08:09:53;;;;;;;12.90;6.87;;;;;;;7.96;74.60;101227.20;1919510;75;21047;-64
2022/02/21 08:12:21;;;;;;;13.80;6.12;;;;;;;8.01;74.21;101224.89;1919608;75;21023;-63
2022/02/21 08:14:51;;;;;;;11.53;6.33;;;;;;;8.02;74.04;101219.20;1919698;75;21101;-63
2022/02/21 08:17:19;;;;;;;11.63;6.83;;;;;;;8.08;73.80;101221.25;1919537;75;21051;-63
2022/02/21 08:19:49;;;;;;;11.63;6.05;;;;;;;8.18;73.53;101223.69;1919537;75;21027;-63
2022/02/21 08:22:19;;;;;;;15.05;7.10;;;;;;;8.16;73.24;101223.71;1919534;75;21056;-63
2022/02/21 08:24:48;;;;;;;12.73;7.00;;;;;;;8.08;73.19;101225.64;1919483;75;21125;-63
2022/02/21 08:27:17;;;;;;;14.58;7.42;;;;;;;8.07;73.08;101230.00;1919528;75;21058;-63
2022/02/21 08:29:45;;;;;;;13.72;6.10;;;;;;;8.10;73.06;101218.61;1919553;75;21512;-63
2022/02/21 08:32:14;;;;;;;12.40;6.60;;;;;;;8.20;72.93;101216.64;1919516;75;21101;-63
2022/02/21 08:34:42;;;;;;;11.35;6.58;;;;;;;8.36;72.70;101216.72;1919652;75;21047;-63
2022/02/21 08:37:13;;;;;;;8.85;5.78;;;;;;;8.60;72.46;101210.55;1919520;75;21012;-62
2022/02/21 08:39:42;;;;;;;12.30;7.00;;;;;;;8.86;72.29;101206.83;1919526;75;21509;-63
2022/02/21 08:42:10;;;;;;;11.68;6.37;;;;;;;9.21;71.77;101200.29;1919513;75;21129;-63
2022/02/21 08:44:39;;;;;;;12.58;6.95;;;;;;;9.35;71.42;101207.36;1919521;75;21047;-62
2022/02/21 08:47:08;;;;;;;17.50;9.00;;;;;;;9.43;71.36;101195.33;1919707;74;21035;-62
2022/02/21 08:49:37;;;;;;;14.03;7.78;;;;;;;9.48;71.28;101194.76;1919435;75;21125;-62
2022/02/21 08:52:07;;;;;;;12.47;7.15;;;;;;;9.58;70.94;101205.88;1919598;75;21007;-63
2022/02/21 08:54:36;;;;;;;14.45;7.60;;;;;;;9.51;70.51;101198.59;1919589;73;21082;-62
2022/02/21 08:57:05;;;;;;;13.45;8.43;;;;;;;9.82;69.89;101193.80;1919504;75;21089;-62
2022/02/21 08:59:34;;;;;;;14.70;8.00;;;;;;;10.47;68.64;101195.85;1919676;75;21051;-63
2022/02/21 09:02:03;;;;;;;17.17;8.48;;;;;;;11.03;67.72;101194.48;1919640;73;21121;-63
2022/02/21 09:04:32;;;;;;;13.50;8.58;;;;;;;11.12;67.38;101195.48;1919147;74;21063;-63
2022/02/21 09:07:02;;;;;;;14.68;8.28;;;;;;;12.40;65.58;101192.16;1918857;75;21059;-63
2022/02/21 09:09:30;;;;;;;14.38;7.60;;;;;;;14.35;62.94;101193.89;1918853;74;21120;-62
2022/02/21 09:12:01;;;;;;;12.13;6.60;;;;;;;15.99;59.42;101194.01;1918835;75;21551;-62
2022/02/21 09:14:29;;;;;;;12.45;7.10;;;;;;;15.62;59.48;101184.01;1918776;75;21060;-64
2022/02/21 09:16:58;;;;;;;12.35;7.17;;;;;;;14.56;60.39;101192.87;1918892;74;21474;-62
2022/02/21 09:19:27;;;;;;;12.37;7.30;;;;;;;13.78;61.25;101193.43;1918939;75;21047;-62
2022/02/21 09:21:56;;;;;;;9.98;6.72;;;;;;;14.14;60.86;101190.48;1918909;75;21200;-63
2022/02/21 09:24:24;;;;;;;14.55;7.80;;;;;;;15.91;57.96;101183.81;1918887;75;21051;-62
2022/02/21 09:26:53;;;;;;;11.68;7.10;;;;;;;17.60;54.20;101179.87;1918876;74;21047;-62
2022/02/21 09:29:24;;;;;;;12.20;6.53;;;;;;;18.61;52.70;101171.27;1918772;75;21110;-63
2022/02/21 09:31:55;;;;;;;11.95;6.95;;;;;;;17.89;52.87;101177.22;1918851;75;21055;-62
2022/02/21 09:34:23;;;;;;;12.37;7.05;;;;;;;17.48;53.44;101177.95;1918856;75;21007;-63
2022/02/21 09:36:52;;;;;;;13.60;7.05;;;;;;;17.33;52.62;101173.94;1918887;74;21047;-62
2022/02/21 09:39:21;;;;;;;11.70;6.17;;;;;;;16.88;53.43;101172.23;1918885;74;21481;-63
2022/02/21 09:41:50;;;;;;;10.70;5.47;;;;;;;16.19;53.33;101165.02;1918738;73;21114;-63
2022/02/21 09:44:19;;;;;;;8.93;5.60;;;;;;;15.97;54.11;101168.89;1918963;74;21117;-62
2022/02/21 09:46:50;;;;;;;11.10;6.03;;;;;;;16.33;53.19;101166.92;1918846;75;21008;-63
2022/02/21 09:49:19;;;;;;;12.60;6.33;;;;;;;16.77;52.55;101158.20;1918274;75;21078;-62
2022/02/21 09:51:48;;;;;;;9.85;5.65;;;;;;;16.96;52.17;101152.19;1918972;75;21087;-62
2022/02/21 09:54:18;;;;;;;11.15;5.87;;;;;;;17.65;50.52;101155.16;1918780;74;21101;-63
2022/02/21 09:56:48;;;;;;;10.30;5.40;;;;;;;18.00;50.39;101154.78;1918854;75;21531;-62
2022/02/21 09:59:17;;;;;;;9.13;5.28;;;;;;;17.50;50.97;101150.76;1918866;75;21031;-63
2022/02/21 10:01:46;;;;;;;12.10;5.40;;;;;;;17.28;51.03;101144.11;1918857;73;21102;-62
2022/02/21 10:04:23;;;;;;;8.30;5.17;;;;;;;16.51;51.99;101147.27;1920544;74;21470;-63
2022/02/21 10:06:53;;;;;;;9.38;5.40;;;;;;;15.60;52.89;101146.08;1935197;73;21088;-63
2022/02/21 10:09:26;;;;;;;11.60;5.17;;;;;;;14.93;54.18;101146.02;1935278;74;21019;-62
2022/02/21 10:11:58;;;;;;;9.70;4.92;;;;;;;15.05;54.18;101147.20;1935396;74;21509;-62
2022/02/21 10:14:30;;;;;;;11.70;5.72;;;;;;;15.09;53.80;101146.10;1935293;74;21035;-62
2022/02/21 10:17:00;;;;;;;;;;;;;;;14.65;54.47;101142.09;1897897;76;21484;-63
2022/02/21 10:19:30;;;;;;;10.28;4.95;;;;;;;15.16;54.03;101139.55;1879391;76;20485;-63
2022/02/21 10:22:10;;;;;;;8.48;5.45;;;;;;;15.41;53.79;101135.11;1879667;76;21505;-63
2022/02/21 10:24:50;;;;;;;12.07;5.28;;;;;;;15.99;52.82;101127.16;1879494;76;21047;-62
2022/02/21 10:27:26;;;;;;;9.73;4.22;;;;;;;16.71;51.74;101121.31;1878944;76;21102;-62
2022/02/21 10:30:04;;;;;;;11.00;4.72;;;;;;;17.59;49.89;101123.56;1878680;76;21487;-63
2022/02/21 10:32:35;;;;;;;8.08;4.08;;;;;;;18.70;47.96;101113.31;1879551;76;21047;-62
2022/02/21 10:35:20;;;;;;;7.20;4.33;;;;;;;19.52;46.60;101110.38;1879515;76;21489;-62
2022/02/21 10:37:53;;;;;;;5.40;3.70;;;;;;;20.00;45.49;101115.86;1879401;76;21113;-63
2022/02/21 10:40:27;;;;;;;7.37;3.83;;;;;;;20.28;44.28;101105.81;1879422;76;21052;-62
2022/02/21 10:43:20;;;;;;;7.95;4.50;;;;;;;20.21;43.59;101106.77;1878524;76;21051;-62
2022/02/21 10:45:45;;;;;;;6.78;3.33;;;;;;;20.42;43.60;101106.98;1877364;76;21136;-62
2022/02/21 10:48:24;;;;;;;7.37;3.87;;;;;;;20.60;42.59;101098.53;1879421;76;21039;-63
2022/02/21 10:51:00;;;;;;;8.25;3.90;;;;;;;20.83;41.26;101095.48;1878890;76;21087;-62
2022/02/21 10:53:41;;;;;;;6.90;3.75;;;;;;;20.96;40.48;101094.05;1879384;76;21497;-62
2022/02/21 10:56:11;;;;;;;5.67;3.05;;;;;;;20.69;38.71;101092.51;1879408;76;21128;-62
2022/02/21 10:58:41;;;;;;;6.62;3.40;;;;;;;20.47;38.70;101091.91;1879355;76;21071;-63
2022/02/21 11:01:10;;;;;;;12.55;4.00;;;;;;;20.41;38.89;101097.23;1879500;76;21184;-64
2022/02/21 11:03:39;;;;;;;9.75;4.22;;;;;;;19.86;38.94;101094.63;1879521;76;21055;-64
2022/02/21 11:06:09;;;;;;;9.85;4.12;;;;;;;19.57;39.56;101098.02;1875554;76;21079;-64
2022/02/21 11:08:37;;;;;;;8.45;4.20;;;;;;;19.44;40.06;101092.70;1872990;76;21075;-64
2022/02/21 11:11:10;;;;;;;9.40;3.83;;;;;;;19.14;40.29;101088.55;1873021;76;21561;-64
2022/02/21 11:13:40;;;;;;;10.72;4.08;;;;;;;19.26;40.22;101089.53;1873110;76;21048;-64
2022/02/21 11:16:12;;;;;;;9.20;3.27;;;;;;;19.24;40.15;101093.64;1873015;76;21137;-64
2022/02/21 11:18:41;;;;;;;6.90;4.22;;;;;;;18.97;39.62;101084.87;1873121;76;21162;-64
2022/02/21 11:21:10;;;;;;;10.80;3.85;;;;;;;18.62;40.03;101085.44;1873009;76;21509;-63
2022/02/21 11:23:39;;;;;;;9.28;3.80;;;;;;;18.96;40.29;101081.37;1872968;76;21040;-65
2022/02/21 11:26:14;;;;;;;10.30;4.25;;;;;;;18.82;39.71;101079.62;1873100;76;21439;-64
2022/02/21 11:28:51;;;;;;;5.67;3.27;;;;;;;18.62;40.02;101082.77;1871704;76;21052;-64
2022/02/21 11:31:33;;;;;;;9.80;4.85;;;;;;;18.29;40.08;101085.39;1871609;76;21056;-64
2022/02/21 11:34:09;;;;;;;8.03;4.47;;;;;;;18.05;40.17;101082.03;1873254;76;21048;-64
2022/02/21 11:36:35;;;;;;;5.00;2.95;;;;;;;17.88;40.44;101081.80;1872327;76;21094;-64
2022/02/21 11:39:23;;;;;;;6.35;3.37;;;;;;;17.99;40.81;101074.94;1873016;76;21019;-64
2022/02/21 11:42:16;;;;;;;6.10;3.45;;;;;;;17.85;40.45;101077.14;1873141;76;21047;-64
2022/02/21 11:45:00;;;;;;;8.08;3.62;;;;;;;17.92;40.79;101081.13;1872933;76;21567;-64
2022/02/21 11:47:34;;;;;;;5.87;4.33;;;;;;;17.80;40.66;101082.75;1872997;76;21122;-64
2022/02/21 11:50:10;;;;;;;5.83;3.05;;;;;;;17.42;40.74;101078.03;1873005;76;21161;-64
2022/02/21 11:52:40;;;;;;;7.25;3.17;;;;;;;17.21;40.59;101077.56;1878198;76;21108;-64
2022/02/21 11:55:35;;;;;;;5.90;2.90;;;;;;;16.97;41.00;101080.77;1918958;75;21100;-64
2022/02/21 11:58:24;;;;;;;5.15;2.62;;;;;;;17.05;41.17;101079.45;1884610;74;21055;-64